sensor_id;sensor_type;location;lat;lon;timestamp;pressure;altitude;pressure_sealevel;temperature;humidity
59170;BME280;52474;52.236;5.114;2023-02-13T00:01:54;103831.59;;;5.73;100.00
59170;BME280;52474;52.236;5.114;2023-02-13T00:04:19;103817.72;;;5.65;100.00
59170;BME280;52474;52.236;5.114;2023-02-13T00:06:45;103798.53;;;5.58;100.00
59170;BME280;52474;52.236;5.114;2023-02-13T00:09:12;103831.66;;;5.70;100.00
59170;BME280;52474;52.236;5.114;2023-02-13T00:11:40;103817.66;;;5.68;100.00
59170;BME280;52474;52.236;5.114;2023-02-13T00:14:06;103832.50;;;5.74;100.00
59170;BME280;52474;52.236;5.114;2023-02-13T00:16:34;103822.81;;;5.74;100.00
59170;BME280;52474;52.236;5.114;2023-02-13T00:19:00;103815.16;;;5.62;100.00
59170;BME280;52474;52.236;5.114;2023-02-13T00:21:26;103800.22;;;5.63;100.00
59170;BME280;52474;52.236;5.114;2023-02-13T00:23:52;103823.81;;;5.69;100.00
59170;BME280;52474;52.236;5.114;2023-02-13T00:26:21;103845.44;;;5.85;100.00
59170;BME280;52474;52.236;5.114;2023-02-13T00:28:55;103834.06;;;5.82;100.00
59170;BME280;52474;52.236;5.114;2023-02-13T00:31:23;103839.25;;;5.87;100.00
59170;BME280;52474;52.236;5.114;2023-02-13T00:33:49;103840.19;;;5.85;100.00
59170;BME280;52474;52.236;5.114;2023-02-13T00:36:20;103834.06;;;5.82;100.00
59170;BME280;52474;52.236;5.114;2023-02-13T00:38:46;103811.66;;;5.62;100.00
59170;BME280;52474;52.236;5.114;2023-02-13T00:41:13;103838.50;;;5.80;100.00
59170;BME280;52474;52.236;5.114;2023-02-13T00:43:41;103835.84;;;5.82;100.00
59170;BME280;52474;52.236;5.114;2023-02-13T00:46:07;103836.69;;;5.84;100.00
59170;BME280;52474;52.236;5.114;2023-02-13T00:48:34;103839.34;;;5.82;100.00
59170;BME280;52474;52.236;5.114;2023-02-13T00:51:00;103833.19;;;5.84;100.00
59170;BME280;52474;52.236;5.114;2023-02-13T00:53:29;103840.19;;;5.83;100.00
59170;BME280;52474;52.236;5.114;2023-02-13T00:55:55;103827.09;;;5.81;100.00
59170;BME280;52474;52.236;5.114;2023-02-13T00:58:22;103833.22;;;5.82;100.00
59170;BME280;52474;52.236;5.114;2023-02-13T01:00:48;103816.66;;;5.75;100.00
59170;BME280;52474;52.236;5.114;2023-02-13T01:03:15;103831.50;;;5.81;100.00
59170;BME280;52474;52.236;5.114;2023-02-13T01:05:44;103825.41;;;5.77;100.00
59170;BME280;52474;52.236;5.114;2023-02-13T01:08:11;103812.38;;;5.71;100.00
59170;BME280;52474;52.236;5.114;2023-02-13T01:10:38;103828.00;;;5.79;100.00
59170;BME280;52474;52.236;5.114;2023-02-13T01:13:07;103829.78;;;5.78;100.00
59170;BME280;52474;52.236;5.114;2023-02-13T01:15:34;103828.88;;;5.78;100.00
59170;BME280;52474;52.236;5.114;2023-02-13T01:17:59;103828.94;;;5.76;100.00
59170;BME280;52474;52.236;5.114;2023-02-13T01:20:27;103835.06;;;5.77;100.00
59170;BME280;52474;52.236;5.114;2023-02-13T01:22:53;103820.19;;;5.74;100.00
59170;BME280;52474;52.236;5.114;2023-02-13T01:25:21;103808.91;;;5.69;100.00
59170;BME280;52474;52.236;5.114;2023-02-13T01:27:46;103823.69;;;5.76;100.00
59170;BME280;52474;52.236;5.114;2023-02-13T01:30:17;103810.69;;;5.67;100.00
59170;BME280;52474;52.236;5.114;2023-02-13T01:32:44;103808.84;;;5.71;100.00
59170;BME280;52474;52.236;5.114;2023-02-13T01:35:13;103814.94;;;5.74;100.00
59170;BME280;52474;52.236;5.114;2023-02-13T01:37:40;103813.22;;;5.72;100.00
59170;BME280;52474;52.236;5.114;2023-02-13T01:40:08;103820.25;;;5.71;100.00
59170;BME280;52474;52.236;5.114;2023-02-13T01:42:36;103820.22;;;5.73;100.00
59170;BME280;52474;52.236;5.114;2023-02-13T01:45:05;103823.69;;;5.75;100.00
59170;BME280;52474;52.236;5.114;2023-02-13T01:47:44;103835.13;;;5.74;100.00
59170;BME280;52474;52.236;5.114;2023-02-13T01:50:32;103809.84;;;5.65;100.00
59170;BME280;52474;52.236;5.114;2023-02-13T01:53:12;103810.53;;;5.75;100.00
59170;BME280;52474;52.236;5.114;2023-02-13T01:55:52;103814.88;;;5.77;100.00
59170;BME280;52474;52.236;5.114;2023-02-13T01:58:22;103805.28;;;5.76;100.00
59170;BME280;52474;52.236;5.114;2023-02-13T02:00:50;103807.91;;;5.76;100.00
59170;BME280;52474;52.236;5.114;2023-02-13T02:03:21;103787.84;;;5.69;100.00
59170;BME280;52474;52.236;5.114;2023-02-13T02:05:50;103803.50;;;5.75;100.00
59170;BME280;52474;52.236;5.114;2023-02-13T02:08:16;103795.66;;;5.74;100.00
59170;BME280;52474;52.236;5.114;2023-02-13T02:10:50;103798.22;;;5.78;100.00
59170;BME280;52474;52.236;5.114;2023-02-13T02:13:18;103797.38;;;5.76;100.00
59170;BME280;52474;52.236;5.114;2023-02-13T02:15:45;103798.25;;;5.75;100.00
59170;BME280;52474;52.236;5.114;2023-02-13T02:18:18;103804.41;;;5.74;100.00
59170;BME280;52474;52.236;5.114;2023-02-13T02:26:34;103800.84;;;5.78;100.00
59170;BME280;52474;52.236;5.114;2023-02-13T02:45:05;103786.00;;;5.74;100.00
59170;BME280;52474;52.236;5.114;2023-02-13T02:47:58;103785.09;;;5.77;100.00
59170;BME280;52474;52.236;5.114;2023-02-13T02:50:51;103772.94;;;5.71;100.00
59170;BME280;52474;52.236;5.114;2023-02-13T02:53:33;103783.38;;;5.74;100.00
59170;BME280;52474;52.236;5.114;2023-02-13T03:01:36;103784.31;;;5.72;100.00
59170;BME280;52474;52.236;5.114;2023-02-13T03:04:31;103778.22;;;5.68;100.00
59170;BME280;52474;52.236;5.114;2023-02-13T03:07:17;103776.47;;;5.69;100.00
59170;BME280;52474;52.236;5.114;2023-02-13T03:09:51;103791.28;;;5.74;100.00
59170;BME280;52474;52.236;5.114;2023-02-13T03:12:45;103778.97;;;5.75;100.00
59170;BME280;52474;52.236;5.114;2023-02-13T03:15:32;103786.00;;;5.76;100.00
59170;BME280;52474;52.236;5.114;2023-02-13T03:18:00;103779.91;;;5.72;100.00
59170;BME280;52474;52.236;5.114;2023-02-13T03:20:54;103786.00;;;5.76;100.00
59170;BME280;52474;52.236;5.114;2023-02-13T03:29:33;103790.38;;;5.75;100.00
59170;BME280;52474;52.236;5.114;2023-02-13T03:38:12;103779.91;;;5.72;100.00
59170;BME280;52474;52.236;5.114;2023-02-13T03:41:03;103784.31;;;5.72;100.00
59170;BME280;52474;52.236;5.114;2023-02-13T03:46:36;103781.69;;;5.72;100.00
59170;BME280;52474;52.236;5.114;2023-02-13T03:49:06;103765.97;;;5.67;100.00
59170;BME280;52474;52.236;5.114;2023-02-13T03:54:57;103775.47;;;5.76;100.00
59170;BME280;52474;52.236;5.114;2023-02-13T03:57:43;103779.84;;;5.75;100.00
59170;BME280;52474;52.236;5.114;2023-02-13T04:00:38;103768.44;;;5.76;100.00
59170;BME280;52474;52.236;5.114;2023-02-13T04:06:17;103762.34;;;5.74;100.00
59170;BME280;52474;52.236;5.114;2023-02-13T04:08:44;103742.38;;;5.64;100.00
59170;BME280;52474;52.236;5.114;2023-02-13T04:13:59;103771.03;;;5.79;100.00
59170;BME280;52474;52.236;5.114;2023-02-13T04:16:34;103752.84;;;5.67;100.00
59170;BME280;52474;52.236;5.114;2023-02-13T04:19:04;103764.91;;;5.79;100.00
59170;BME280;52474;52.236;5.114;2023-02-13T04:21:35;103754.53;;;5.71;100.00
59170;BME280;52474;52.236;5.114;2023-02-13T04:24:01;103763.13;;;5.79;100.00
59170;BME280;52474;52.236;5.114;2023-02-13T04:26:33;103772.72;;;5.80;100.00
59170;BME280;52474;52.236;5.114;2023-02-13T04:28:59;103745.78;;;5.69;100.00
59170;BME280;52474;52.236;5.114;2023-02-13T04:31:25;103767.47;;;5.80;100.00
59170;BME280;52474;52.236;5.114;2023-02-13T04:33:50;103763.13;;;5.79;100.00
59170;BME280;52474;52.236;5.114;2023-02-13T04:36:16;103757.00;;;5.79;100.00
59170;BME280;52474;52.236;5.114;2023-02-13T04:38:42;103756.16;;;5.78;100.00
59170;BME280;52474;52.236;5.114;2023-02-13T04:41:09;103760.56;;;5.76;100.00
59170;BME280;52474;52.236;5.114;2023-02-13T04:43:35;103767.53;;;5.79;100.00
59170;BME280;52474;52.236;5.114;2023-02-13T04:46:01;103766.66;;;5.78;100.00
59170;BME280;52474;52.236;5.114;2023-02-13T04:48:27;103764.91;;;5.79;100.00
59170;BME280;52474;52.236;5.114;2023-02-13T04:50:53;103756.16;;;5.78;100.00
59170;BME280;52474;52.236;5.114;2023-02-13T04:53:19;103742.38;;;5.64;100.00
59170;BME280;52474;52.236;5.114;2023-02-13T04:55:45;103751.75;;;5.77;100.00
59170;BME280;52474;52.236;5.114;2023-02-13T04:58:10;103757.03;;;5.77;100.00
59170;BME280;52474;52.236;5.114;2023-02-13T05:00:36;103735.34;;;5.66;100.00
59170;BME280;52474;52.236;5.114;2023-02-13T05:03:11;103752.69;;;5.75;100.00
59170;BME280;52474;52.236;5.114;2023-02-13T05:05:37;103740.59;;;5.66;100.00
59170;BME280;52474;52.236;5.114;2023-02-13T05:08:03;103756.19;;;5.75;100.00
59170;BME280;52474;52.236;5.114;2023-02-13T05:10:30;103755.31;;;5.75;100.00
59170;BME280;52474;52.236;5.114;2023-02-13T05:12:56;103740.47;;;5.72;100.00
59170;BME280;52474;52.236;5.114;2023-02-13T05:15:21;103739.63;;;5.70;100.00
59170;BME280;52474;52.236;5.114;2023-02-13T05:17:48;103743.09;;;5.72;100.00
59170;BME280;52474;52.236;5.114;2023-02-13T05:20:15;103746.59;;;5.73;100.00
59170;BME280;52474;52.236;5.114;2023-02-13T05:22:48;103741.31;;;5.73;100.00
59170;BME280;52474;52.236;5.114;2023-02-13T05:25:34;103745.75;;;5.71;100.00
59170;BME280;52474;52.236;5.114;2023-02-13T05:28:00;103744.88;;;5.70;100.00
59170;BME280;52474;52.236;5.114;2023-02-13T05:30:26;103741.38;;;5.71;100.00
59170;BME280;52474;52.236;5.114;2023-02-13T05:32:52;103750.13;;;5.72;100.00
59170;BME280;52474;52.236;5.114;2023-02-13T05:35:20;103744.88;;;5.70;100.00
59170;BME280;52474;52.236;5.114;2023-02-13T05:37:46;103734.50;;;5.63;100.00
59170;BME280;52474;52.236;5.114;2023-02-13T05:40:12;103724.06;;;5.58;100.00
59170;BME280;52474;52.236;5.114;2023-02-13T05:42:41;103748.41;;;5.69;100.00
59170;BME280;52474;52.236;5.114;2023-02-13T05:45:08;103753.63;;;5.71;100.00
59170;BME280;52474;52.236;5.114;2023-02-13T05:47:35;103739.75;;;5.63;100.00
59170;BME280;52474;52.236;5.114;2023-02-13T05:50:01;103751.06;;;5.68;100.00
59170;BME280;52474;52.236;5.114;2023-02-13T05:52:27;103754.63;;;5.65;100.00
59170;BME280;52474;52.236;5.114;2023-02-13T05:54:52;103746.78;;;5.64;100.00
59170;BME280;52474;52.236;5.114;2023-02-13T05:57:18;103749.34;;;5.65;100.00
59170;BME280;52474;52.236;5.114;2023-02-13T05:59:44;103751.88;;;5.71;100.00
59170;BME280;52474;52.236;5.114;2023-02-13T06:02:09;103758.00;;;5.72;100.00
59170;BME280;52474;52.236;5.114;2023-02-13T06:04:35;103734.59;;;5.58;100.00
59170;BME280;52474;52.236;5.114;2023-02-13T06:07:01;103755.38;;;5.72;100.00
59170;BME280;52474;52.236;5.114;2023-02-13T06:09:27;103762.44;;;5.70;100.00
59170;BME280;52474;52.236;5.114;2023-02-13T06:11:53;103756.25;;;5.72;100.00
59170;BME280;52474;52.236;5.114;2023-02-13T06:14:19;103750.13;;;5.70;100.00
59170;BME280;52474;52.236;5.114;2023-02-13T06:16:45;103744.97;;;5.66;100.00
59170;BME280;52474;52.236;5.114;2023-02-13T06:19:11;103738.97;;;5.57;100.00
59170;BME280;52474;52.236;5.114;2023-02-13T06:21:36;103743.31;;;5.62;100.00
59170;BME280;52474;52.236;5.114;2023-02-13T06:24:04;103752.06;;;5.62;100.00
59170;BME280;52474;52.236;5.114;2023-02-13T06:26:30;103753.75;;;5.65;100.00
59170;BME280;52474;52.236;5.114;2023-02-13T06:28:55;103744.09;;;5.65;100.00
59170;BME280;52474;52.236;5.114;2023-02-13T06:31:21;103751.16;;;5.63;100.00
59170;BME280;52474;52.236;5.114;2023-02-13T06:33:47;103753.75;;;5.66;100.00
59170;BME280;52474;52.236;5.114;2023-02-13T06:36:13;103752.91;;;5.64;100.00
59170;BME280;52474;52.236;5.114;2023-02-13T06:38:38;103752.13;;;5.57;100.00
59170;BME280;52474;52.236;5.114;2023-02-13T06:41:04;103752.91;;;5.64;100.00
59170;BME280;52474;52.236;5.114;2023-02-13T06:43:31;103746.81;;;5.60;100.00
59170;BME280;52474;52.236;5.114;2023-02-13T06:45:57;103750.19;;;5.69;100.00
59170;BME280;52474;52.236;5.114;2023-02-13T06:48:24;103761.50;;;5.71;100.00
59170;BME280;52474;52.236;5.114;2023-02-13T06:50:50;103755.41;;;5.70;100.00
59170;BME280;52474;52.236;5.114;2023-02-13T06:53:18;103733.66;;;5.62;100.00
59170;BME280;52474;52.236;5.114;2023-02-13T06:55:52;103757.94;;;5.76;100.00
59170;BME280;52474;52.236;5.114;2023-02-13T06:58:19;103762.34;;;5.74;100.00
59170;BME280;52474;52.236;5.114;2023-02-13T07:00:45;103760.63;;;5.72;100.00
59170;BME280;52474;52.236;5.114;2023-02-13T07:03:12;103753.63;;;5.72;100.00
59170;BME280;52474;52.236;5.114;2023-02-13T07:05:39;103757.94;;;5.76;100.00
59170;BME280;52474;52.236;5.114;2023-02-13T07:08:06;103751.03;;;5.69;100.00
59170;BME280;52474;52.236;5.114;2023-02-13T07:10:32;103746.56;;;5.74;100.00
59170;BME280;52474;52.236;5.114;2023-02-13T07:12:58;103756.00;;;5.85;100.00
59170;BME280;52474;52.236;5.114;2023-02-13T07:15:24;103768.25;;;5.86;100.00
59170;BME280;52474;52.236;5.114;2023-02-13T07:17:57;103754.44;;;5.76;100.00
59170;BME280;52474;52.236;5.114;2023-02-13T07:20:24;103762.13;;;5.87;100.00
59170;BME280;52474;52.236;5.114;2023-02-13T07:22:50;103763.84;;;5.88;100.00
59170;BME280;52474;52.236;5.114;2023-02-13T07:25:17;103770.78;;;5.92;100.00
59170;BME280;52474;52.236;5.114;2023-02-13T07:27:43;103769.03;;;5.92;100.00
59170;BME280;52474;52.236;5.114;2023-02-13T07:30:11;103768.16;;;5.92;100.00
59170;BME280;52474;52.236;5.114;2023-02-13T07:32:37;103769.88;;;5.93;100.00
59170;BME280;52474;52.236;5.114;2023-02-13T07:35:03;103768.13;;;5.95;100.00
59170;BME280;52474;52.236;5.114;2023-02-13T07:37:30;103774.25;;;5.95;100.00
59170;BME280;52474;52.236;5.114;2023-02-13T07:39:56;103774.22;;;5.98;100.00
59170;BME280;52474;52.236;5.114;2023-02-13T07:42:22;103773.31;;;5.99;100.00
59170;BME280;52474;52.236;5.114;2023-02-13T07:44:48;103778.53;;;6.01;100.00
59170;BME280;52474;52.236;5.114;2023-02-13T07:47:14;103785.47;;;6.05;100.00
59170;BME280;52474;52.236;5.114;2023-02-13T07:49:40;103779.31;;;6.06;100.00
59170;BME280;52474;52.236;5.114;2023-02-13T07:52:06;103765.44;;;5.98;100.00
59170;BME280;52474;52.236;5.114;2023-02-13T07:54:32;103763.63;;;6.01;100.00
59170;BME280;52474;52.236;5.114;2023-02-13T07:56:58;103785.31;;;6.13;100.00
59170;BME280;52474;52.236;5.114;2023-02-13T07:59:24;103788.78;;;6.16;100.00
59170;BME280;52474;52.236;5.114;2023-02-13T08:01:50;103784.28;;;6.20;100.00
59170;BME280;52474;52.236;5.114;2023-02-13T08:04:16;103779.09;;;6.18;100.00
59170;BME280;52474;52.236;5.114;2023-02-13T08:06:42;103782.50;;;6.22;100.00
59170;BME280;52474;52.236;5.114;2023-02-13T08:09:17;103781.56;;;6.24;100.00
59170;BME280;52474;52.236;5.114;2023-02-13T08:12:04;103797.97;;;6.37;100.00
59170;BME280;52474;52.236;5.114;2023-02-13T08:14:30;103805.88;;;6.37;100.00
59170;BME280;52474;52.236;5.114;2023-02-13T08:16:57;103815.44;;;6.43;100.00
59170;BME280;52474;52.236;5.114;2023-02-13T08:19:23;103810.03;;;6.49;100.00
59170;BME280;52474;52.236;5.114;2023-02-13T08:21:49;103810.84;;;6.53;100.00
59170;BME280;52474;52.236;5.114;2023-02-13T08:24:15;103809.00;;;6.56;100.00
59170;BME280;52474;52.236;5.114;2023-02-13T08:26:41;103808.06;;;6.59;100.00
59170;BME280;52474;52.236;5.114;2023-02-13T08:29:07;103772.31;;;6.49;100.00
59170;BME280;52474;52.236;5.114;2023-02-13T08:31:34;103805.84;;;6.81;100.00
59170;BME280;52474;52.236;5.114;2023-02-13T08:34:00;103781.19;;;6.85;100.00
59170;BME280;52474;52.236;5.114;2023-02-13T08:36:26;103800.09;;;7.02;100.00
59170;BME280;52474;52.236;5.114;2023-02-13T08:38:52;103784.13;;;7.10;100.00
59170;BME280;52474;52.236;5.114;2023-02-13T08:41:18;103803.66;;;7.37;100.00
59170;BME280;52474;52.236;5.114;2023-02-13T08:43:47;103802.13;;;7.64;100.00
59170;BME280;52474;52.236;5.114;2023-02-13T08:46:14;103802.47;;;8.17;100.00
59170;BME280;52474;52.236;5.114;2023-02-13T08:48:41;103790.19;;;8.77;100.00
59170;BME280;52474;52.236;5.114;2023-02-13T08:51:09;103775.38;;;9.00;100.00
59170;BME280;52474;52.236;5.114;2023-02-13T08:53:36;103784.75;;;9.37;100.00
59170;BME280;52474;52.236;5.114;2023-02-13T08:56:02;103785.81;;;9.58;100.00
59170;BME280;52474;52.236;5.114;2023-02-13T08:58:28;103775.69;;;9.71;100.00
59170;BME280;52474;52.236;5.114;2023-02-13T09:00:54;103789.47;;;9.80;100.00
59170;BME280;52474;52.236;5.114;2023-02-13T09:03:19;103791.78;;;9.89;100.00
59170;BME280;52474;52.236;5.114;2023-02-13T09:05:45;103794.44;;;9.89;100.00
59170;BME280;52474;52.236;5.114;2023-02-13T09:08:12;103773.78;;;9.99;100.00
59170;BME280;52474;52.236;5.114;2023-02-13T09:10:39;103796.69;;;10.00;100.00
59170;BME280;52474;52.236;5.114;2023-02-13T09:13:05;103779.88;;;10.01;100.00
59170;BME280;52474;52.236;5.114;2023-02-13T09:15:31;103778.72;;;9.85;100.00
59170;BME280;52474;52.236;5.114;2023-02-13T09:17:57;103782.34;;;10.06;100.00
59170;BME280;52474;52.236;5.114;2023-02-13T09:20:23;103767.06;;;10.14;100.00
59170;BME280;52474;52.236;5.114;2023-02-13T09:22:49;103783.84;;;9.89;100.00
59170;BME280;52474;52.236;5.114;2023-02-13T09:25:15;103783.34;;;10.03;100.00
59170;BME280;52474;52.236;5.114;2023-02-13T09:27:40;103776.53;;;10.45;100.00
59170;BME280;52474;52.236;5.114;2023-02-13T09:30:08;103779.53;;;10.36;100.00
59170;BME280;52474;52.236;5.114;2023-02-13T09:32:35;103785.84;;;9.83;100.00
59170;BME280;52474;52.236;5.114;2023-02-13T09:35:03;103770.03;;;9.55;100.00
59170;BME280;52474;52.236;5.114;2023-02-13T09:37:31;103778.88;;;9.80;100.00
59170;BME280;52474;52.236;5.114;2023-02-13T09:39:57;103784.00;;;9.60;100.00
59170;BME280;52474;52.236;5.114;2023-02-13T09:42:26;103787.00;;;9.74;100.00
59170;BME280;52474;52.236;5.114;2023-02-13T09:44:58;103767.31;;;10.06;100.00
59170;BME280;52474;52.236;5.114;2023-02-13T09:50:03;103790.56;;;9.98;100.00
59170;BME280;52474;52.236;5.114;2023-02-13T09:52:33;103784.00;;;10.34;100.00
59170;BME280;52474;52.236;5.114;2023-02-13T09:55:00;103787.16;;;10.20;100.00
59170;BME280;52474;52.236;5.114;2023-02-13T09:57:33;103789.97;;;10.40;100.00
59170;BME280;52474;52.236;5.114;2023-02-13T10:00:12;103784.41;;;10.70;100.00
59170;BME280;52474;52.236;5.114;2023-02-13T10:05:39;103765.41;;;12.27;100.00
59170;BME280;52474;52.236;5.114;2023-02-13T10:16:18;103756.16;;;21.34;100.00
59170;BME280;52474;52.236;5.114;2023-02-13T10:18:52;103757.88;;;21.87;100.00
59170;BME280;52474;52.236;5.114;2023-02-13T10:21:25;103761.06;;;15.91;100.00
59170;BME280;52474;52.236;5.114;2023-02-13T10:24:04;103754.13;;;17.65;100.00
59170;BME280;52474;52.236;5.114;2023-02-13T10:26:34;103752.09;;;19.87;100.00
59170;BME280;52474;52.236;5.114;2023-02-13T10:32:16;103741.66;;;22.08;100.00
59170;BME280;52474;52.236;5.114;2023-02-13T10:34:44;103743.00;;;21.93;100.00
59170;BME280;52474;52.236;5.114;2023-02-13T10:37:17;103744.72;;;20.89;100.00
59170;BME280;52474;52.236;5.114;2023-02-13T10:39:46;103741.66;;;22.87;100.00
59170;BME280;52474;52.236;5.114;2023-02-13T10:42:19;103748.53;;;21.91;100.00
59170;BME280;52474;52.236;5.114;2023-02-13T10:45:08;103753.47;;;23.15;100.00
59170;BME280;52474;52.236;5.114;2023-02-13T10:50:31;103743.03;;;23.97;94.14
59170;BME280;52474;52.236;5.114;2023-02-13T11:04:20;103739.66;;;27.00;75.64
59170;BME280;52474;52.236;5.114;2023-02-13T11:09:23;103742.28;;;24.60;78.33
59170;BME280;52474;52.236;5.114;2023-02-13T11:11:49;103733.59;;;23.17;83.80
59170;BME280;52474;52.236;5.114;2023-02-13T11:14:24;103745.84;;;19.75;100.00
59170;BME280;52474;52.236;5.114;2023-02-13T11:19:32;103734.69;;;24.63;82.74
59170;BME280;52474;52.236;5.114;2023-02-13T11:22:05;103729.19;;;24.91;80.57
59170;BME280;52474;52.236;5.114;2023-02-13T11:24:33;103715.03;;;25.05;75.95
59170;BME280;52474;52.236;5.114;2023-02-13T11:27:07;103721.63;;;25.47;73.11
59170;BME280;52474;52.236;5.114;2023-02-13T11:29:59;103712.56;;;24.23;80.41
59170;BME280;52474;52.236;5.114;2023-02-13T11:32:29;103707.47;;;25.09;76.53
59170;BME280;52474;52.236;5.114;2023-02-13T11:34:56;103710.16;;;23.45;84.79
59170;BME280;52474;52.236;5.114;2023-02-13T11:37:27;103705.03;;;24.16;82.32
59170;BME280;52474;52.236;5.114;2023-02-13T11:39:58;103698.19;;;24.76;80.83
59170;BME280;52474;52.236;5.114;2023-02-13T11:42:31;103683.41;;;25.32;75.69
59170;BME280;52474;52.236;5.114;2023-02-13T11:45:20;103674.22;;;24.81;75.26
59170;BME280;52474;52.236;5.114;2023-02-13T11:47:46;103681.63;;;24.61;78.88
59170;BME280;52474;52.236;5.114;2023-02-13T11:50:26;103687.59;;;24.01;78.59
59170;BME280;52474;52.236;5.114;2023-02-13T11:55:36;103676.41;;;24.59;78.99
59170;BME280;52474;52.236;5.114;2023-02-13T12:00:37;103682.34;;;22.66;84.99
59170;BME280;52474;52.236;5.114;2023-02-13T12:03:27;103670.56;;;23.16;89.40
59170;BME280;52474;52.236;5.114;2023-02-13T12:06:15;103668.63;;;25.26;78.48
59170;BME280;52474;52.236;5.114;2023-02-13T12:08:47;103652.34;;;24.29;77.02
59170;BME280;52474;52.236;5.114;2023-02-13T12:13:46;103658.28;;;23.96;80.17
59170;BME280;52474;52.236;5.114;2023-02-13T12:18:49;103661.31;;;24.29;77.58
59170;BME280;52474;52.236;5.114;2023-02-13T12:27:35;103664.59;;;23.87;79.01
59170;BME280;52474;52.236;5.114;2023-02-13T12:30:14;103663.03;;;21.51;90.67
59170;BME280;52474;52.236;5.114;2023-02-13T12:33:35;103664.31;;;22.57;88.19
59170;BME280;52474;52.236;5.114;2023-02-13T12:36:29;103650.75;;;22.18;91.63
59170;BME280;52474;52.236;5.114;2023-02-13T12:41:17;103661.03;;;21.53;95.87
59170;BME280;52474;52.236;5.114;2023-02-13T12:49:47;103641.78;;;19.42;100.00
59170;BME280;52474;52.236;5.114;2023-02-13T12:55:01;103631.03;;;20.42;100.00
59170;BME280;52474;52.236;5.114;2023-02-13T12:57:44;103636.09;;;22.01;95.28
59170;BME280;52474;52.236;5.114;2023-02-13T13:00:28;103647.81;;;22.31;92.90
59170;BME280;52474;52.236;5.114;2023-02-13T13:03:22;103641.50;;;22.11;92.70
59170;BME280;52474;52.236;5.114;2023-02-13T13:19:49;103612.38;;;15.75;100.00
59170;BME280;52474;52.236;5.114;2023-02-13T13:22:49;103608.22;;;14.52;100.00
59170;BME280;52474;52.236;5.114;2023-02-13T13:25:35;103619.72;;;14.06;100.00
59170;BME280;52474;52.236;5.114;2023-02-13T13:28:08;103594.88;;;13.90;100.00
59170;BME280;52474;52.236;5.114;2023-02-13T13:30:36;103610.50;;;14.12;100.00
59170;BME280;52474;52.236;5.114;2023-02-13T13:33:24;103614.03;;;14.60;100.00
59170;BME280;52474;52.236;5.114;2023-02-13T13:38:56;103614.28;;;13.76;100.00
59170;BME280;52474;52.236;5.114;2023-02-13T13:52:20;103582.84;;;13.34;100.00
59170;BME280;52474;52.236;5.114;2023-02-13T13:54:47;103583.25;;;13.08;100.00
59170;BME280;52474;52.236;5.114;2023-02-13T14:00:21;103581.31;;;12.60;100.00
59170;BME280;52474;52.236;5.114;2023-02-13T14:06:08;103576.81;;;12.25;100.00
59170;BME280;52474;52.236;5.114;2023-02-13T14:11:43;103573.84;;;12.32;100.00
59170;BME280;52474;52.236;5.114;2023-02-13T14:16:53;103565.66;;;12.00;100.00
59170;BME280;52474;52.236;5.114;2023-02-13T14:19:40;103566.72;;;11.96;100.00
59170;BME280;52474;52.236;5.114;2023-02-13T14:22:30;103573.59;;;11.81;100.00
59170;BME280;52474;52.236;5.114;2023-02-13T14:25:00;103570.00;;;11.63;100.00
59170;BME280;52474;52.236;5.114;2023-02-13T14:27:31;103575.09;;;11.68;100.00
59170;BME280;52474;52.236;5.114;2023-02-13T14:29:58;103570.75;;;11.67;100.00
59170;BME280;52474;52.236;5.114;2023-02-13T14:35:13;103571.97;;;11.39;100.00
59170;BME280;52474;52.236;5.114;2023-02-13T14:38:05;103565.88;;;11.37;100.00
59170;BME280;52474;52.236;5.114;2023-02-13T14:40:46;103569.47;;;11.36;100.00
59170;BME280;52474;52.236;5.114;2023-02-13T14:49:01;103572.06;;;11.37;100.00
59170;BME280;52474;52.236;5.114;2023-02-13T14:51:39;103565.97;;;11.35;100.00
59170;BME280;52474;52.236;5.114;2023-02-13T14:54:07;103565.53;;;11.26;100.00
59170;BME280;52474;52.236;5.114;2023-02-13T14:56:37;103562.00;;;11.25;100.00
59170;BME280;52474;52.236;5.114;2023-02-13T14:59:16;103563.13;;;11.20;100.00
59170;BME280;52474;52.236;5.114;2023-02-13T15:04:25;103566.91;;;11.14;100.00
59170;BME280;52474;52.236;5.114;2023-02-13T15:06:55;103565.28;;;11.11;100.00
59170;BME280;52474;52.236;5.114;2023-02-13T15:09:33;103529.22;;;10.87;100.00
59170;BME280;52474;52.236;5.114;2023-02-13T15:12:04;103555.94;;;11.03;100.00
59170;BME280;52474;52.236;5.114;2023-02-13T15:14:48;103557.72;;;11.02;100.00
59170;BME280;52474;52.236;5.114;2023-02-13T15:17:16;103555.41;;;10.94;100.00
59170;BME280;52474;52.236;5.114;2023-02-13T15:19:56;103556.34;;;10.93;100.00
59170;BME280;52474;52.236;5.114;2023-02-13T15:22:31;103528.84;;;10.76;100.00
59170;BME280;52474;52.236;5.114;2023-02-13T15:24:58;103556.59;;;10.87;100.00
59170;BME280;52474;52.236;5.114;2023-02-13T15:27:33;103555.88;;;10.84;100.00
59170;BME280;52474;52.236;5.114;2023-02-13T15:32:40;103543.41;;;10.65;100.00
59170;BME280;52474;52.236;5.114;2023-02-13T15:35:25;103545.28;;;10.63;100.00
59170;BME280;52474;52.236;5.114;2023-02-13T15:37:52;103550.63;;;10.62;100.00
59170;BME280;52474;52.236;5.114;2023-02-13T15:40:27;103545.53;;;10.57;100.00
59170;BME280;52474;52.236;5.114;2023-02-13T15:42:54;103543.88;;;10.55;100.00
59170;BME280;52474;52.236;5.114;2023-02-13T15:45:21;103548.44;;;10.51;100.00
59170;BME280;52474;52.236;5.114;2023-02-13T15:47:48;103549.00;;;10.37;100.00
59170;BME280;52474;52.236;5.114;2023-02-13T15:50:33;103539.69;;;10.27;100.00
59170;BME280;52474;52.236;5.114;2023-02-13T15:53:03;103534.31;;;10.06;100.00
59170;BME280;52474;52.236;5.114;2023-02-13T15:55:32;103553.59;;;10.10;100.00